createdAt,value
2023-06-30T00:01:50.627Z,5.28
2023-06-30T00:04:19.519Z,4.70
2023-06-30T00:06:50.594Z,3.55
2023-06-30T00:09:21.402Z,5.07
2023-06-30T00:11:51.657Z,4.78
2023-06-30T00:14:18.914Z,8.13
2023-06-30T00:16:46.368Z,4.72
2023-06-30T00:19:13.757Z,3.03
2023-06-30T00:21:43.062Z,6.07
2023-06-30T00:24:20.321Z,4.72
2023-06-30T00:26:47.345Z,5.15
2023-06-30T00:29:14.780Z,6.35
2023-06-30T00:31:41.871Z,6.30
2023-06-30T00:34:08.948Z,3.90
2023-06-30T00:36:35.952Z,3.55
2023-06-30T00:39:03.927Z,4.30
2023-06-30T00:41:31.145Z,4.65
2023-06-30T00:43:59.363Z,5.28
2023-06-30T00:46:26.955Z,4.95
2023-06-30T00:48:55.492Z,4.72
2023-06-30T00:51:22.619Z,3.33
2023-06-30T00:53:49.690Z,3.58
2023-06-30T00:56:16.660Z,6.65
2023-06-30T00:58:44.140Z,6.55
2023-06-30T01:01:31.073Z,3.33
2023-06-30T01:04:07.947Z,3.65
2023-06-30T01:06:40.347Z,4.63
2023-06-30T01:09:20.646Z,6.97
2023-06-30T01:11:48.770Z,4.53
2023-06-30T01:14:17.965Z,5.22
2023-06-30T01:16:45.355Z,4.57
2023-06-30T01:19:45.724Z,4.57
2023-06-30T01:22:40.888Z,5.40
2023-06-30T01:25:13.257Z,4.70
2023-06-30T01:27:41.932Z,4.43
2023-06-30T01:30:11.146Z,3.17
2023-06-30T01:32:42.038Z,3.78
2023-06-30T01:35:09.728Z,6.00
2023-06-30T01:37:37.099Z,3.65
2023-06-30T01:40:08.046Z,4.30
2023-06-30T01:42:37.671Z,5.05
2023-06-30T01:45:06.078Z,5.15
2023-06-30T01:47:33.520Z,5.32
2023-06-30T01:50:00.912Z,3.17
2023-06-30T01:52:27.962Z,5.57
2023-06-30T01:54:55.028Z,3.53
2023-06-30T01:57:22.030Z,7.75
2023-06-30T01:59:49.055Z,7.05
2023-06-30T02:02:16.098Z,3.17
2023-06-30T02:04:43.121Z,5.72
2023-06-30T02:07:10.246Z,3.85
2023-06-30T02:09:47.279Z,5.05
2023-06-30T02:12:15.782Z,5.07
2023-06-30T02:14:43.146Z,4.13
2023-06-30T02:17:11.423Z,4.32
2023-06-30T02:19:38.513Z,5.20
2023-06-30T02:22:06.285Z,10.15
2023-06-30T02:24:33.477Z,4.15
2023-06-30T02:27:00.817Z,3.78
2023-06-30T02:29:27.986Z,5.63
2023-06-30T02:31:55.409Z,4.97
2023-06-30T02:34:22.781Z,5.97
2023-06-30T02:36:49.894Z,6.32
2023-06-30T02:39:17.623Z,7.97
2023-06-30T02:41:44.747Z,3.72
2023-06-30T02:44:13.339Z,4.38
2023-06-30T02:46:40.509Z,9.27
2023-06-30T02:49:07.545Z,6.05
2023-06-30T02:51:35.286Z,4.88
2023-06-30T02:54:02.483Z,4.53
2023-06-30T02:56:29.532Z,8.23
2023-06-30T02:58:58.458Z,5.35
2023-06-30T03:01:26.592Z,9.40
2023-06-30T03:03:54.251Z,7.15
2023-06-30T03:06:25.424Z,4.03
2023-06-30T03:08:52.816Z,6.03
2023-06-30T03:11:23.201Z,3.75
2023-06-30T03:13:50.643Z,4.40
2023-06-30T03:16:17.761Z,2.80
2023-06-30T03:18:45.272Z,4.70
2023-06-30T03:21:12.290Z,3.28
2023-06-30T03:23:41.490Z,2.65
2023-06-30T03:26:08.719Z,2.80
2023-06-30T03:28:36.884Z,5.00
2023-06-30T03:31:04.212Z,3.30
2023-06-30T03:33:31.579Z,3.60
2023-06-30T03:35:58.616Z,3.33
2023-06-30T03:38:26.350Z,4.28
2023-06-30T03:40:53.392Z,9.27
2023-06-30T03:43:23.831Z,4.60
2023-06-30T03:45:51.873Z,5.35
2023-06-30T03:48:18.947Z,3.80
2023-06-30T03:50:46.124Z,6.18
2023-06-30T03:53:13.393Z,5.07
2023-06-30T03:55:40.443Z,4.75
2023-06-30T03:58:07.526Z,3.80
2023-06-30T04:00:35.104Z,4.93
2023-06-30T04:03:02.368Z,5.60
2023-06-30T04:05:29.505Z,4.22
2023-06-30T04:07:56.981Z,4.55
2023-06-30T04:10:24.063Z,3.00
2023-06-30T04:12:51.249Z,5.25
2023-06-30T04:15:18.198Z,7.15
2023-06-30T04:17:45.300Z,5.80
2023-06-30T04:20:15.946Z,5.35
2023-06-30T04:22:43.322Z,5.40
2023-06-30T04:25:10.841Z,4.18
2023-06-30T04:27:38.102Z,4.82
2023-06-30T04:30:09.287Z,6.13
2023-06-30T04:32:36.482Z,7.68
2023-06-30T04:35:03.913Z,4.35
2023-06-30T04:37:30.930Z,3.38
2023-06-30T04:39:59.368Z,5.07
2023-06-30T04:42:29.489Z,3.42
2023-06-30T04:44:56.689Z,3.40
2023-06-30T04:47:23.785Z,4.97
2023-06-30T04:49:51.118Z,6.32
2023-06-30T04:52:18.092Z,5.68
2023-06-30T04:54:45.358Z,5.47
2023-06-30T04:57:12.470Z,5.18
2023-06-30T04:59:39.823Z,4.95
2023-06-30T05:02:07.691Z,5.57
2023-06-30T05:04:34.675Z,4.43
2023-06-30T05:07:01.678Z,7.03
2023-06-30T05:09:28.672Z,4.25
2023-06-30T05:11:55.884Z,5.47
2023-06-30T05:14:22.860Z,9.00
2023-06-30T05:16:51.139Z,6.55
2023-06-30T05:19:18.348Z,6.00
2023-06-30T05:21:45.313Z,9.45
2023-06-30T05:24:12.312Z,6.30
2023-06-30T05:26:39.398Z,8.23
2023-06-30T05:29:07.857Z,6.13
2023-06-30T05:31:34.865Z,6.68
2023-06-30T05:34:02.804Z,7.05
2023-06-30T05:36:34.937Z,8.48
2023-06-30T05:39:02.957Z,7.35
2023-06-30T05:41:29.951Z,5.50
2023-06-30T05:43:56.986Z,7.65
2023-06-30T05:46:24.066Z,5.93
2023-06-30T05:48:51.071Z,5.97
2023-06-30T05:51:18.085Z,3.72
2023-06-30T05:53:45.111Z,5.85
2023-06-30T05:56:12.106Z,5.47
2023-06-30T05:58:41.892Z,6.43
2023-06-30T06:01:08.902Z,8.27
2023-06-30T06:03:36.066Z,7.10
2023-06-30T06:06:03.473Z,4.20
2023-06-30T06:08:30.872Z,3.97
2023-06-30T06:10:57.979Z,4.80
2023-06-30T06:13:39.749Z,9.45
2023-06-30T06:16:08.830Z,8.25
2023-06-30T06:18:36.610Z,5.63
2023-06-30T06:21:05.035Z,9.50
2023-06-30T06:23:32.344Z,6.80
2023-06-30T06:25:59.661Z,7.80
2023-06-30T06:28:26.694Z,8.70
2023-06-30T06:30:53.743Z,8.63
2023-06-30T06:33:21.354Z,16.95
2023-06-30T06:35:52.118Z,11.48
2023-06-30T06:38:20.581Z,16.50
2023-06-30T06:40:48.663Z,17.02
2023-06-30T06:43:15.916Z,12.77
2023-06-30T06:45:43.809Z,12.48
2023-06-30T06:48:20.265Z,13.52
2023-06-30T06:50:55.313Z,14.23
2023-06-30T06:53:27.035Z,12.82
2023-06-30T06:55:56.441Z,11.02
2023-06-30T06:58:26.555Z,12.18
2023-06-30T07:00:54.139Z,11.23
2023-06-30T07:03:21.689Z,9.40
2023-06-30T07:05:49.342Z,9.50
2023-06-30T07:08:20.079Z,11.95
2023-06-30T07:10:48.905Z,13.60
2023-06-30T07:13:19.298Z,10.30
2023-06-30T07:15:48.916Z,10.57
2023-06-30T07:18:19.970Z,12.55
2023-06-30T07:23:19.800Z,10.50
2023-06-30T07:25:50.116Z,9.15
2023-06-30T07:28:17.336Z,9.38
2023-06-30T07:30:45.021Z,6.85
2023-06-30T07:33:12.215Z,11.82
2023-06-30T07:35:39.867Z,11.98
2023-06-30T07:38:06.977Z,13.73
2023-06-30T07:40:50.612Z,11.00
2023-06-30T07:43:20.958Z,11.82
2023-06-30T07:45:48.676Z,10.05
2023-06-30T07:48:16.378Z,8.75
2023-06-30T07:50:54.659Z,10.05
2023-06-30T07:53:27.102Z,8.95
2023-06-30T07:55:54.215Z,12.57
2023-06-30T07:58:21.481Z,12.55
2023-06-30T08:00:48.464Z,10.90
2023-06-30T08:03:15.580Z,9.35
2023-06-30T08:05:43.227Z,11.75
2023-06-30T08:08:10.442Z,16.00
2023-06-30T08:10:39.537Z,15.10
2023-06-30T08:13:07.537Z,15.02
2023-06-30T08:15:34.523Z,10.18
2023-06-30T08:18:09.442Z,14.52
2023-06-30T08:20:39.382Z,15.40
2023-06-30T08:23:06.564Z,10.52
2023-06-30T08:25:33.691Z,11.77
2023-06-30T08:28:00.818Z,12.20
2023-06-30T08:30:28.775Z,13.85
2023-06-30T08:32:56.695Z,12.70
2023-06-30T08:35:24.953Z,12.73
2023-06-30T08:37:53.906Z,14.90
2023-06-30T08:40:27.080Z,11.63
2023-06-30T08:42:56.960Z,14.50
2023-06-30T08:45:29.211Z,13.23
2023-06-30T08:48:17.377Z,11.98
2023-06-30T08:50:45.408Z,12.13
2023-06-30T08:53:12.655Z,15.10
2023-06-30T08:55:41.019Z,17.92
2023-06-30T08:58:21.137Z,15.98
2023-06-30T09:00:52.376Z,17.77
2023-06-30T09:03:20.455Z,12.32
2023-06-30T09:05:49.541Z,12.90
2023-06-30T09:08:36.305Z,14.48
2023-06-30T09:11:05.341Z,16.88
2023-06-30T09:13:33.243Z,16.90
2023-06-30T09:16:01.283Z,16.63
2023-06-30T09:18:29.015Z,22.52
2023-06-30T09:20:56.232Z,17.48
2023-06-30T09:23:23.481Z,15.73
2023-06-30T09:25:53.835Z,16.27
2023-06-30T09:28:20.861Z,16.33
2023-06-30T09:30:48.893Z,17.23
2023-06-30T09:33:18.042Z,15.57
2023-06-30T09:35:48.073Z,17.23
2023-06-30T09:38:20.543Z,20.38
2023-06-30T09:40:50.425Z,16.77
2023-06-30T09:43:23.378Z,19.35
2023-06-30T09:45:59.080Z,22.27
2023-06-30T09:48:36.412Z,18.42
2023-06-30T09:51:03.601Z,19.10
2023-06-30T09:53:39.105Z,19.85
2023-06-30T09:56:07.642Z,21.00
2023-06-30T09:58:37.090Z,20.52
2023-06-30T10:01:04.252Z,20.27
2023-06-30T10:03:31.474Z,18.80
2023-06-30T10:05:58.922Z,17.92
2023-06-30T10:08:26.566Z,24.42
2023-06-30T10:10:55.612Z,22.20
2023-06-30T10:13:22.822Z,18.60
2023-06-30T10:15:50.988Z,22.35
2023-06-30T10:18:19.556Z,18.48
2023-06-30T10:20:49.414Z,20.38
2023-06-30T10:23:22.252Z,16.75
2023-06-30T10:25:51.470Z,20.98
2023-06-30T10:28:20.327Z,22.42
2023-06-30T10:30:52.091Z,22.65
2023-06-30T10:33:19.514Z,23.13
2023-06-30T10:35:48.416Z,22.90
2023-06-30T10:38:15.616Z,21.63
2023-06-30T10:40:42.674Z,22.15
2023-06-30T10:43:11.265Z,20.00
2023-06-30T10:46:11.358Z,19.00
2023-06-30T10:48:41.428Z,23.52
2023-06-30T10:51:11.841Z,19.33
2023-06-30T10:53:43.027Z,19.92
2023-06-30T10:56:10.561Z,27.38
2023-06-30T10:58:46.440Z,22.25
2023-06-30T11:01:15.455Z,23.92
2023-06-30T11:03:57.810Z,24.92
2023-06-30T11:06:26.845Z,25.77
2023-06-30T11:09:01.846Z,22.92
2023-06-30T11:11:28.942Z,23.75
2023-06-30T11:14:06.811Z,26.67
2023-06-30T11:17:04.418Z,23.38
2023-06-30T11:19:32.068Z,24.80
2023-06-30T11:22:33.005Z,21.52
2023-06-30T11:25:06.401Z,30.70
2023-06-30T11:27:34.461Z,21.25
2023-06-30T11:30:02.339Z,24.83
2023-06-30T11:32:31.861Z,23.05
2023-06-30T11:35:02.480Z,25.15
2023-06-30T11:37:31.680Z,27.80
2023-06-30T11:39:59.933Z,25.55
2023-06-30T11:42:27.328Z,24.70
2023-06-30T11:44:54.448Z,23.58
2023-06-30T11:47:22.376Z,25.02
2023-06-30T11:49:50.479Z,25.63
2023-06-30T11:52:19.881Z,26.70
2023-06-30T11:54:47.298Z,28.20
2023-06-30T11:57:14.540Z,28.25
2023-06-30T11:59:41.580Z,22.27
2023-06-30T12:02:12.833Z,33.47
2023-06-30T12:04:47.757Z,28.83
2023-06-30T12:07:16.503Z,31.90
2023-06-30T12:09:44.009Z,33.10
2023-06-30T12:12:11.497Z,32.85
2023-06-30T12:14:42.652Z,32.33
2023-06-30T12:17:10.795Z,27.70
2023-06-30T12:19:38.745Z,34.22
2023-06-30T12:22:08.136Z,33.55
2023-06-30T12:24:36.114Z,43.88
2023-06-30T12:27:08.590Z,39.83
2023-06-30T12:29:36.870Z,33.28
2023-06-30T12:32:17.220Z,31.13
2023-06-30T12:34:46.705Z,30.23
2023-06-30T12:37:20.076Z,37.53
2023-06-30T12:39:47.983Z,30.92
2023-06-30T12:42:15.036Z,37.40
2023-06-30T12:44:42.014Z,34.08
2023-06-30T12:47:09.091Z,34.40
2023-06-30T12:49:39.289Z,34.20
2023-06-30T12:52:06.549Z,31.60
2023-06-30T12:54:34.166Z,29.85
2023-06-30T12:57:01.256Z,31.38
2023-06-30T12:59:28.318Z,33.22
2023-06-30T13:01:55.441Z,33.63
2023-06-30T13:04:22.466Z,36.03
2023-06-30T13:06:49.414Z,34.17
2023-06-30T13:09:16.439Z,33.10
2023-06-30T13:11:43.426Z,39.45
2023-06-30T13:14:10.481Z,28.15
2023-06-30T13:16:37.828Z,30.38
2023-06-30T13:19:04.980Z,30.42
2023-06-30T13:21:31.988Z,35.50
2023-06-30T13:23:59.038Z,37.55
2023-06-30T13:26:26.400Z,29.00
2023-06-30T13:28:53.406Z,35.13
2023-06-30T13:31:20.412Z,28.58
2023-06-30T13:33:47.416Z,44.97
2023-06-30T13:36:15.515Z,32.55
2023-06-30T13:38:47.585Z,34.10
2023-06-30T13:41:14.965Z,30.55
2023-06-30T13:43:42.052Z,33.85
2023-06-30T13:46:09.157Z,31.10
2023-06-30T13:48:39.604Z,30.13
2023-06-30T13:51:11.603Z,31.58
2023-06-30T13:53:48.081Z,32.92
2023-06-30T13:56:17.434Z,34.20
2023-06-30T13:58:44.471Z,29.02
2023-06-30T14:01:12.822Z,28.20
2023-06-30T14:03:41.411Z,30.52
2023-06-30T14:06:08.640Z,29.27
2023-06-30T14:08:36.242Z,31.70
2023-06-30T14:11:03.488Z,33.65
2023-06-30T14:13:38.580Z,33.70
2023-06-30T14:16:08.206Z,37.53
2023-06-30T14:18:35.254Z,40.45
2023-06-30T14:21:05.067Z,36.58
2023-06-30T14:23:32.247Z,33.47
2023-06-30T14:25:59.205Z,32.17
2023-06-30T14:28:26.512Z,33.28
2023-06-30T14:30:54.680Z,38.33
2023-06-30T14:33:21.771Z,35.40
2023-06-30T14:35:49.431Z,36.58
2023-06-30T14:38:16.432Z,38.33
2023-06-30T14:40:43.597Z,38.20
2023-06-30T14:43:10.675Z,33.55
2023-06-30T14:45:37.747Z,43.20
2023-06-30T14:48:05.444Z,35.88
2023-06-30T14:50:32.653Z,32.95
2023-06-30T14:52:59.875Z,31.52
2023-06-30T14:55:26.908Z,34.58
2023-06-30T14:57:54.027Z,43.67
2023-06-30T15:00:21.188Z,36.45
2023-06-30T15:02:48.304Z,39.58
2023-06-30T15:05:15.552Z,41.28
2023-06-30T15:07:44.233Z,34.58
2023-06-30T15:10:12.416Z,38.65
2023-06-30T15:12:39.462Z,38.65
2023-06-30T15:15:07.396Z,33.00
2023-06-30T15:17:34.460Z,34.40
2023-06-30T15:20:01.783Z,34.50
2023-06-30T15:22:30.834Z,36.45
2023-06-30T15:24:58.864Z,34.45
2023-06-30T15:27:26.975Z,32.25
2023-06-30T15:29:54.640Z,28.67
2023-06-30T15:32:21.715Z,23.15
2023-06-30T15:34:48.990Z,26.33
2023-06-30T15:37:16.160Z,22.98
2023-06-30T15:39:43.246Z,20.83
2023-06-30T15:42:10.326Z,24.92
2023-06-30T15:44:40.718Z,23.80
2023-06-30T15:47:08.064Z,23.08
2023-06-30T15:49:35.180Z,33.28
2023-06-30T15:52:02.229Z,20.95
2023-06-30T15:54:29.635Z,29.52
2023-06-30T15:56:56.661Z,19.75
2023-06-30T15:59:24.382Z,27.42
2023-06-30T16:01:51.400Z,21.20
2023-06-30T16:04:18.562Z,27.70
2023-06-30T16:06:45.668Z,24.10
2023-06-30T16:09:14.950Z,23.10
2023-06-30T16:11:42.362Z,23.13
2023-06-30T16:14:09.526Z,23.60
2023-06-30T16:16:36.722Z,21.08
2023-06-30T16:19:03.848Z,24.98
2023-06-30T16:21:33.744Z,19.55
2023-06-30T16:24:01.194Z,23.33
2023-06-30T16:26:28.170Z,21.25
2023-06-30T16:28:58.918Z,21.23
2023-06-30T16:31:26.228Z,20.92
2023-06-30T16:33:53.432Z,19.23
2023-06-30T16:36:20.495Z,17.10
2023-06-30T16:38:47.675Z,17.05
2023-06-30T16:41:14.909Z,20.00
2023-06-30T16:43:42.358Z,22.00
2023-06-30T16:46:09.456Z,18.38
2023-06-30T16:48:36.507Z,18.73
2023-06-30T16:51:03.589Z,19.80
2023-06-30T16:53:30.665Z,16.95
2023-06-30T16:55:57.804Z,17.38
2023-06-30T16:58:26.442Z,17.30
2023-06-30T17:00:54.271Z,17.08
2023-06-30T17:03:21.532Z,16.98
2023-06-30T17:05:48.925Z,19.75
2023-06-30T17:08:16.736Z,16.50
2023-06-30T17:10:46.669Z,18.25
2023-06-30T17:13:13.957Z,23.98
2023-06-30T17:15:40.989Z,18.08
2023-06-30T17:18:08.515Z,18.52
2023-06-30T17:20:35.851Z,18.17
2023-06-30T17:23:02.978Z,17.10
2023-06-30T17:25:30.145Z,17.33
2023-06-30T17:27:57.387Z,22.95
2023-06-30T17:30:24.576Z,17.88
2023-06-30T17:32:51.600Z,18.75
2023-06-30T17:35:18.644Z,17.63
2023-06-30T17:37:45.632Z,17.58
2023-06-30T17:40:13.431Z,16.92
2023-06-30T17:42:40.410Z,13.52
2023-06-30T17:45:07.815Z,17.65
2023-06-30T17:47:34.863Z,16.63
2023-06-30T17:50:02.018Z,14.52
2023-06-30T17:52:29.139Z,15.20
2023-06-30T17:54:56.192Z,14.82
2023-06-30T17:57:23.243Z,17.35
2023-06-30T17:59:50.279Z,19.27
2023-06-30T18:02:17.312Z,14.05
2023-06-30T18:04:44.662Z,18.42
2023-06-30T18:07:12.836Z,18.27
2023-06-30T18:09:43.754Z,14.68
2023-06-30T18:12:12.003Z,12.70
2023-06-30T18:14:41.331Z,15.70
2023-06-30T18:17:09.423Z,15.95
2023-06-30T18:19:37.747Z,17.88
2023-06-30T18:22:05.182Z,15.18
2023-06-30T18:24:32.203Z,17.50
2023-06-30T18:26:59.464Z,16.02
2023-06-30T18:29:27.100Z,15.48
2023-06-30T18:31:57.573Z,15.45
2023-06-30T18:34:26.644Z,21.52
2023-06-30T18:36:53.726Z,18.75
2023-06-30T18:39:21.238Z,17.85
2023-06-30T18:41:48.589Z,25.70
2023-06-30T18:44:15.932Z,21.63
2023-06-30T18:46:43.110Z,19.60
2023-06-30T18:49:12.471Z,16.77
2023-06-30T18:51:42.980Z,17.08
2023-06-30T18:54:11.306Z,17.30
2023-06-30T18:56:38.824Z,16.23
2023-06-30T18:59:06.142Z,15.13
2023-06-30T19:01:33.846Z,15.63
2023-06-30T19:04:01.300Z,18.38
2023-06-30T19:06:28.583Z,19.33
2023-06-30T19:08:55.776Z,19.23
2023-06-30T19:11:24.153Z,21.52
2023-06-30T19:13:53.858Z,21.20
2023-06-30T19:16:21.636Z,22.83
2023-06-30T19:18:49.147Z,22.90
2023-06-30T19:21:16.649Z,21.30
2023-06-30T19:23:43.977Z,21.73
2023-06-30T19:26:12.164Z,20.98
2023-06-30T19:28:42.573Z,22.10
2023-06-30T19:31:10.023Z,26.05
2023-06-30T19:33:38.015Z,19.40
2023-06-30T19:36:05.951Z,22.27
2023-06-30T19:38:33.213Z,22.20
2023-06-30T19:41:00.316Z,22.17
2023-06-30T19:43:30.287Z,20.95
2023-06-30T19:45:57.323Z,22.25
2023-06-30T19:48:24.356Z,20.35
2023-06-30T19:50:51.705Z,21.98
2023-06-30T19:53:18.824Z,25.02
2023-06-30T19:55:46.575Z,22.55
2023-06-30T19:58:14.100Z,19.13
2023-06-30T20:00:41.080Z,21.00
2023-06-30T20:03:08.581Z,21.25
2023-06-30T20:05:36.838Z,24.02
2023-06-30T20:08:04.377Z,23.40
2023-06-30T20:10:31.907Z,22.92
2023-06-30T20:12:59.292Z,22.17
2023-06-30T20:15:27.017Z,18.00
2023-06-30T20:17:54.598Z,21.20
2023-06-30T20:20:21.757Z,18.08
2023-06-30T20:22:48.878Z,20.42
2023-06-30T20:25:16.154Z,21.73
2023-06-30T20:27:45.864Z,19.48
2023-06-30T20:30:13.635Z,20.15
2023-06-30T20:32:40.755Z,20.30
2023-06-30T20:35:10.003Z,19.40
2023-06-30T20:37:37.189Z,21.75
2023-06-30T20:40:05.023Z,16.52
2023-06-30T20:42:32.024Z,19.08
2023-06-30T20:44:59.042Z,21.13
2023-06-30T20:47:26.511Z,16.80
2023-06-30T20:49:53.888Z,21.67
2023-06-30T20:52:21.031Z,19.83
2023-06-30T20:54:48.017Z,18.60
2023-06-30T20:57:15.024Z,20.55
2023-06-30T20:59:42.442Z,18.05
2023-06-30T21:02:09.569Z,20.88
2023-06-30T21:04:36.932Z,24.50
2023-06-30T21:07:04.442Z,17.83
2023-06-30T21:09:31.464Z,16.33
2023-06-30T21:11:58.462Z,16.42
2023-06-30T21:14:25.511Z,20.67
2023-06-30T21:16:52.555Z,19.05
2023-06-30T21:19:19.615Z,16.58
2023-06-30T21:21:46.734Z,16.73
2023-06-30T21:24:13.707Z,19.17
2023-06-30T21:26:42.398Z,18.95
2023-06-30T21:29:12.270Z,17.42
2023-06-30T21:31:39.511Z,17.45
2023-06-30T21:34:06.642Z,23.65
2023-06-30T21:36:35.132Z,20.00
2023-06-30T21:39:04.563Z,18.70
2023-06-30T21:41:31.687Z,22.35
2023-06-30T21:43:58.676Z,20.45
2023-06-30T21:46:26.035Z,17.52
2023-06-30T21:48:53.967Z,20.70
2023-06-30T21:51:21.279Z,15.48
2023-06-30T21:53:48.268Z,15.52
2023-06-30T21:56:15.278Z,16.77
2023-06-30T21:58:42.341Z,15.73
2023-06-30T22:01:09.534Z,14.63
2023-06-30T22:03:36.756Z,14.70
2023-06-30T22:06:03.886Z,17.48
2023-06-30T22:08:30.833Z,15.15
2023-06-30T22:11:01.257Z,15.65
2023-06-30T22:13:28.684Z,16.38
2023-06-30T22:15:55.701Z,19.45
2023-06-30T22:18:22.762Z,17.20
2023-06-30T22:20:49.972Z,18.67
2023-06-30T22:23:17.315Z,19.23
2023-06-30T22:25:44.319Z,21.00
2023-06-30T22:28:11.530Z,21.35
2023-06-30T22:30:38.599Z,17.60
2023-06-30T22:33:05.646Z,16.52
2023-06-30T22:35:32.719Z,17.08
2023-06-30T22:37:59.746Z,16.52
2023-06-30T22:40:26.769Z,17.15
2023-06-30T22:42:54.967Z,20.95
2023-06-30T22:45:22.065Z,22.13
2023-06-30T22:47:49.136Z,17.95
2023-06-30T22:50:16.263Z,18.08
2023-06-30T22:52:43.266Z,18.48
2023-06-30T22:55:10.698Z,19.15
2023-06-30T22:57:37.902Z,20.00
2023-06-30T23:00:07.445Z,19.17
2023-06-30T23:02:34.489Z,20.25
2023-06-30T23:05:01.751Z,14.57
2023-06-30T23:07:29.172Z,20.50
2023-06-30T23:09:56.346Z,19.80
2023-06-30T23:12:23.407Z,14.63
2023-06-30T23:14:50.412Z,11.38
2023-06-30T23:17:17.628Z,12.15
2023-06-30T23:19:51.413Z,11.38
2023-06-30T23:22:19.230Z,11.48
2023-06-30T23:24:51.410Z,13.48
2023-06-30T23:27:19.881Z,10.52
2023-06-30T23:29:50.654Z,12.65
2023-06-30T23:32:21.769Z,15.02
2023-06-30T23:34:49.375Z,12.65
2023-06-30T23:37:18.259Z,11.20
2023-06-30T23:39:48.460Z,11.63
2023-06-30T23:42:15.658Z,13.45
2023-06-30T23:44:42.798Z,15.52
2023-06-30T23:47:17.714Z,14.82
2023-06-30T23:49:47.333Z,11.23
2023-06-30T23:52:14.640Z,10.32
2023-06-30T23:54:44.760Z,12.02
2023-06-30T23:57:12.057Z,11.27
2023-06-30T23:59:39.179Z,9.65
